createdAt,value
2023-05-08T00:00:24.312Z,94785.00
2023-05-08T00:01:24.346Z,94781.00
2023-05-08T00:02:24.487Z,94781.00
2023-05-08T00:03:24.488Z,94779.00
2023-05-08T00:04:24.563Z,94783.00
2023-05-08T00:05:24.440Z,94781.00
2023-05-08T00:06:24.484Z,94781.00
2023-05-08T00:07:24.506Z,94781.00
2023-05-08T00:08:24.552Z,94781.00
2023-05-08T00:09:24.580Z,94781.00
2023-05-08T00:10:24.694Z,94783.00
2023-05-08T00:11:24.631Z,94783.00
2023-05-08T00:12:24.653Z,94785.00
2023-05-08T00:13:24.724Z,94785.00
2023-05-08T00:14:24.695Z,94785.00
2023-05-08T00:15:24.718Z,94785.00
2023-05-08T00:16:24.789Z,94783.00
2023-05-08T00:17:24.758Z,94781.00
2023-05-08T00:18:24.756Z,94783.00
2023-05-08T00:19:24.778Z,94783.00
2023-05-08T00:20:24.811Z,94783.00
2023-05-08T00:21:24.864Z,94783.00
2023-05-08T00:22:24.840Z,94783.00
2023-05-08T00:23:24.860Z,94783.00
2023-05-08T00:24:24.908Z,94787.00
2023-05-08T00:25:24.906Z,94787.00
2023-05-08T00:26:24.944Z,94787.00
2023-05-08T00:27:24.960Z,94783.00
2023-05-08T00:28:24.976Z,94783.00
2023-05-08T00:29:24.985Z,94783.00
2023-05-08T00:30:25.012Z,94779.00
2023-05-08T00:31:25.102Z,94781.00
2023-05-08T00:32:25.186Z,94779.00
2023-05-08T00:33:25.078Z,94777.00
2023-05-08T00:34:25.094Z,94777.00
2023-05-08T00:35:25.091Z,94781.00
2023-05-08T00:36:25.114Z,94777.00
2023-05-08T00:37:25.132Z,94777.00
2023-05-08T00:38:25.126Z,94777.00
2023-05-08T00:39:25.134Z,94781.00
2023-05-08T00:40:25.153Z,94779.00
2023-05-08T00:41:25.173Z,94777.00
2023-05-08T00:42:25.192Z,94781.00
2023-05-08T00:43:25.197Z,94779.00
2023-05-08T00:44:25.194Z,94779.00
2023-05-08T00:45:25.235Z,94779.00
2023-05-08T00:46:25.193Z,94779.00
2023-05-08T00:47:25.249Z,94779.00
2023-05-08T00:48:25.214Z,94779.00
2023-05-08T00:49:25.224Z,94781.00
2023-05-08T00:50:25.221Z,94781.00
2023-05-08T00:51:25.258Z,94779.00
2023-05-08T00:52:25.234Z,94779.00
2023-05-08T00:53:25.261Z,94779.00
2023-05-08T00:54:25.238Z,94779.00
2023-05-08T00:55:25.235Z,94779.00
2023-05-08T00:56:25.236Z,94779.00
2023-05-08T00:57:25.220Z,94779.00
2023-05-08T00:58:25.220Z,94783.00
2023-05-08T00:59:25.210Z,94783.00
2023-05-08T01:00:25.204Z,94783.00
2023-05-08T01:01:25.259Z,94783.00
2023-05-08T01:02:25.319Z,94785.00
2023-05-08T01:03:25.280Z,94787.00
2023-05-08T01:04:25.200Z,94787.00
2023-05-08T01:05:25.206Z,94787.00
2023-05-08T01:06:25.199Z,94785.00
2023-05-08T01:07:25.207Z,94785.00
2023-05-08T01:08:25.198Z,94783.00
2023-05-08T01:09:25.216Z,94783.00
2023-05-08T01:10:25.178Z,94785.00
2023-05-08T01:11:25.202Z,94783.00
2023-05-08T01:12:25.197Z,94785.00
2023-05-08T01:13:25.312Z,94787.00
2023-05-08T01:14:25.215Z,94789.00
2023-05-08T01:15:25.201Z,94789.00
2023-05-08T01:16:25.177Z,94789.00
2023-05-08T01:17:25.184Z,94789.00
2023-05-08T01:18:25.189Z,94787.00
2023-05-08T01:19:25.173Z,94787.00
2023-05-08T01:20:25.165Z,94785.00
2023-05-08T01:21:25.173Z,94787.00
2023-05-08T01:22:25.182Z,94785.00
2023-05-08T01:23:25.178Z,94787.00
2023-05-08T01:24:25.185Z,94787.00
2023-05-08T01:25:25.173Z,94785.00
2023-05-08T01:26:25.183Z,94789.00
2023-05-08T01:27:25.151Z,94789.00
2023-05-08T01:28:25.204Z,94791.00
2023-05-08T01:29:25.184Z,94789.00
2023-05-08T01:30:25.152Z,94791.00
2023-05-08T01:31:25.154Z,94791.00
2023-05-08T01:32:25.183Z,94793.00
2023-05-08T01:33:25.241Z,94797.00
2023-05-08T01:34:25.181Z,94795.00
2023-05-08T01:35:25.130Z,94797.00
2023-05-08T01:36:25.128Z,94799.00
2023-05-08T01:37:25.122Z,94797.00
2023-05-08T01:38:25.115Z,94799.00
2023-05-08T01:39:25.124Z,94799.00
2023-05-08T01:40:25.102Z,94799.00
2023-05-08T01:41:25.096Z,94801.00
2023-05-08T01:42:25.117Z,94799.00
2023-05-08T01:43:25.093Z,94801.00
2023-05-08T01:44:25.107Z,94801.00
2023-05-08T01:45:25.072Z,94801.00
2023-05-08T01:46:25.105Z,94801.00
2023-05-08T01:47:25.097Z,94803.00
2023-05-08T01:48:25.073Z,94803.00
2023-05-08T01:49:25.069Z,94801.00
2023-05-08T01:50:25.058Z,94801.00
2023-05-08T01:51:25.080Z,94799.00
2023-05-08T01:52:25.037Z,94799.00
2023-05-08T01:53:25.032Z,94803.00
2023-05-08T01:54:25.052Z,94803.00
2023-05-08T01:55:25.049Z,94803.00
2023-05-08T01:56:25.045Z,94805.00
2023-05-08T01:57:25.041Z,94801.00
2023-05-08T01:58:25.018Z,94805.00
2023-05-08T01:59:25.031Z,94801.00
2023-05-08T02:00:25.015Z,94803.00
2023-05-08T02:01:25.024Z,94803.00
2023-05-08T02:02:25.059Z,94801.00
2023-05-08T02:03:25.070Z,94801.00
2023-05-08T02:04:25.088Z,94801.00
2023-05-08T02:05:25.008Z,94801.00
2023-05-08T02:06:25.020Z,94801.00
2023-05-08T02:07:25.004Z,94801.00
2023-05-08T02:08:24.994Z,94801.00
2023-05-08T02:09:25.025Z,94799.00
2023-05-08T02:10:24.974Z,94799.00
2023-05-08T02:11:24.964Z,94801.00
2023-05-08T02:12:24.962Z,94803.00
2023-05-08T02:13:25.038Z,94803.00
2023-05-08T02:14:24.989Z,94801.00
2023-05-08T02:15:24.970Z,94803.00
2023-05-08T02:16:24.987Z,94805.00
2023-05-08T02:17:24.993Z,94803.00
2023-05-08T02:18:24.979Z,94803.00
2023-05-08T02:19:25.014Z,94803.00
2023-05-08T02:20:25.003Z,94803.00
2023-05-08T02:21:24.995Z,94801.00
2023-05-08T02:22:24.994Z,94801.00
2023-05-08T02:23:24.979Z,94801.00
2023-05-08T02:24:24.996Z,94801.00
2023-05-08T02:25:24.969Z,94799.00
2023-05-08T02:26:24.990Z,94797.00
2023-05-08T02:27:24.971Z,94797.00
2023-05-08T02:28:24.989Z,94797.00
2023-05-08T02:29:24.962Z,94795.00
2023-05-08T02:30:24.981Z,94795.00
2023-05-08T02:31:24.991Z,94795.00
2023-05-08T02:32:25.002Z,94795.00
2023-05-08T02:33:24.949Z,94795.00
2023-05-08T02:34:24.959Z,94791.00
2023-05-08T02:35:24.941Z,94793.00
2023-05-08T02:36:24.970Z,94789.00
2023-05-08T02:37:24.977Z,94791.00
2023-05-08T02:38:24.946Z,94789.00
2023-05-08T02:39:24.951Z,94793.00
2023-05-08T02:40:24.959Z,94793.00
2023-05-08T02:41:24.932Z,94791.00
2023-05-08T02:42:24.938Z,94793.00
2023-05-08T02:43:24.932Z,94795.00
2023-05-08T02:44:24.926Z,94797.00
2023-05-08T02:45:24.927Z,94799.00
2023-05-08T02:46:24.954Z,94797.00
2023-05-08T02:47:24.932Z,94801.00
2023-05-08T02:48:24.943Z,94801.00
2023-05-08T02:49:24.905Z,94801.00
2023-05-08T02:50:24.894Z,94801.00
2023-05-08T02:51:24.881Z,94803.00
2023-05-08T02:52:24.906Z,94803.00
2023-05-08T02:53:24.994Z,94803.00
2023-05-08T02:54:24.870Z,94803.00
2023-05-08T02:55:24.869Z,94803.00
2023-05-08T02:56:24.886Z,94805.00
2023-05-08T02:57:24.885Z,94805.00
2023-05-08T02:58:24.898Z,94803.00
2023-05-08T02:59:24.861Z,94805.00
2023-05-08T03:00:24.857Z,94805.00
2023-05-08T03:01:24.923Z,94805.00
2023-05-08T03:02:24.975Z,94803.00
2023-05-08T03:03:24.999Z,94803.00
2023-05-08T03:04:24.831Z,94805.00
2023-05-08T03:05:24.853Z,94805.00
2023-05-08T03:06:24.843Z,94805.00
2023-05-08T03:07:24.827Z,94803.00
2023-05-08T03:08:24.819Z,94803.00
2023-05-08T03:09:24.811Z,94799.00
2023-05-08T03:10:24.797Z,94801.00
2023-05-08T03:11:24.796Z,94797.00
2023-05-08T03:12:24.808Z,94797.00
2023-05-08T03:13:24.908Z,94801.00
2023-05-08T03:14:24.792Z,94799.00
2023-05-08T03:15:24.792Z,94797.00
2023-05-08T03:16:24.842Z,94797.00
2023-05-08T03:17:24.788Z,94797.00
2023-05-08T03:18:24.757Z,94797.00
2023-05-08T03:19:24.749Z,94797.00
2023-05-08T03:20:24.768Z,94797.00
2023-05-08T03:21:24.752Z,94797.00
2023-05-08T03:22:24.750Z,94797.00
2023-05-08T03:23:24.772Z,94797.00
2023-05-08T03:24:24.748Z,94793.00
2023-05-08T03:25:24.762Z,94793.00
2023-05-08T03:26:24.743Z,94793.00
2023-05-08T03:27:24.745Z,94791.00
2023-05-08T03:28:24.730Z,94789.00
2023-05-08T03:29:24.745Z,94789.00
2023-05-08T03:30:24.721Z,94789.00
2023-05-08T03:31:24.731Z,94789.00
2023-05-08T03:32:24.713Z,94787.00
2023-05-08T03:33:24.720Z,94787.00
2023-05-08T03:34:24.696Z,94787.00
2023-05-08T03:35:24.717Z,94785.00
2023-05-08T03:36:24.682Z,94785.00
2023-05-08T03:38:24.679Z,94787.00
2023-05-08T03:39:24.687Z,94787.00
2023-05-08T03:40:24.685Z,94789.00
2023-05-08T03:41:24.700Z,94787.00
2023-05-08T03:42:24.679Z,94791.00
2023-05-08T03:43:24.655Z,94791.00
2023-05-08T03:44:24.678Z,94791.00
2023-05-08T03:45:24.681Z,94793.00
2023-05-08T03:46:24.725Z,94791.00
2023-05-08T03:47:24.732Z,94793.00
2023-05-08T03:48:24.691Z,94791.00
2023-05-08T03:49:24.691Z,94793.00
2023-05-08T03:50:24.673Z,94795.00
2023-05-08T03:51:24.661Z,94793.00
2023-05-08T03:52:24.673Z,94793.00
2023-05-08T03:53:24.684Z,94795.00
2023-05-08T03:54:24.689Z,94793.00
2023-05-08T03:55:24.682Z,94795.00
2023-05-08T03:56:26.046Z,94797.00
2023-05-08T03:57:24.699Z,94793.00
2023-05-08T03:58:24.699Z,94793.00
2023-05-08T03:59:24.702Z,94797.00
2023-05-08T04:00:24.704Z,94795.00
2023-05-08T04:01:24.685Z,94793.00
2023-05-08T04:02:24.784Z,94795.00
2023-05-08T04:03:24.750Z,94797.00
2023-05-08T04:04:24.667Z,94797.00
2023-05-08T04:05:24.703Z,94799.00
2023-05-08T04:06:25.189Z,94801.00
2023-05-08T04:07:24.668Z,94801.00
2023-05-08T04:08:24.651Z,94801.00
2023-05-08T04:09:24.663Z,94805.00
2023-05-08T04:10:24.644Z,94805.00
2023-05-08T04:11:24.657Z,94805.00
2023-05-08T04:12:24.696Z,94805.00
2023-05-08T04:13:24.911Z,94807.00
2023-05-08T04:14:24.658Z,94809.00
2023-05-08T04:15:24.648Z,94811.00
2023-05-08T04:16:24.668Z,94811.00
2023-05-08T04:17:24.675Z,94813.00
2023-05-08T04:18:24.619Z,94815.00
2023-05-08T04:19:24.896Z,94815.00
2023-05-08T04:20:24.606Z,94817.00
2023-05-08T04:21:24.611Z,94817.00
2023-05-08T04:22:24.599Z,94817.00
2023-05-08T04:23:24.615Z,94817.00
2023-05-08T04:24:24.611Z,94819.00
2023-05-08T04:25:24.595Z,94811.00
2023-05-08T04:26:24.583Z,94811.00
2023-05-08T04:27:24.590Z,94817.00
2023-05-08T04:28:24.581Z,94817.00
2023-05-08T04:29:24.580Z,94819.00
2023-05-08T04:30:24.557Z,94819.00
2023-05-08T04:31:24.582Z,94821.00
2023-05-08T04:32:24.731Z,94815.00
2023-05-08T04:33:24.574Z,94823.00
2023-05-08T04:34:24.564Z,94819.00
2023-05-08T04:35:24.559Z,94821.00
2023-05-08T04:36:24.525Z,94828.00
2023-05-08T04:37:24.549Z,94824.00
2023-05-08T04:38:24.537Z,94830.00
2023-05-08T04:39:24.523Z,94828.00
2023-05-08T04:40:24.534Z,94826.00
2023-05-08T04:41:24.553Z,94828.00
2023-05-08T04:42:24.541Z,94830.00
2023-05-08T04:43:24.500Z,94836.00
2023-05-08T04:44:24.503Z,94830.00
2023-05-08T04:45:24.506Z,94830.00
2023-05-08T04:46:24.539Z,94830.00
2023-05-08T04:47:24.550Z,94830.00
2023-05-08T04:48:24.485Z,94830.00
2023-05-08T04:49:24.495Z,94832.00
2023-05-08T04:50:24.485Z,94830.00
2023-05-08T04:51:24.462Z,94832.00
2023-05-08T04:52:24.504Z,94838.00
2023-05-08T04:53:24.480Z,94840.00
2023-05-08T04:54:24.474Z,94836.00
2023-05-08T04:55:24.477Z,94836.00
2023-05-08T04:56:24.459Z,94842.00
2023-05-08T04:57:24.450Z,94842.00
2023-05-08T04:58:24.448Z,94844.00
2023-05-08T04:59:24.447Z,94846.00
2023-05-08T05:00:24.460Z,94848.00
2023-05-08T05:01:24.482Z,94844.00
2023-05-08T05:02:24.488Z,94846.00
2023-05-08T05:03:24.548Z,94844.00
2023-05-08T05:04:24.438Z,94848.00
2023-05-08T05:05:24.457Z,94850.00
2023-05-08T05:06:24.460Z,94856.00
2023-05-08T05:07:24.439Z,94856.00
2023-05-08T05:08:24.442Z,94856.00
2023-05-08T05:09:24.454Z,94856.00
2023-05-08T05:10:24.445Z,94858.00
2023-05-08T05:11:24.446Z,94856.00
2023-05-08T05:12:24.473Z,94852.00
2023-05-08T05:13:24.561Z,94852.00
2023-05-08T05:14:24.448Z,94854.00
2023-05-08T05:15:24.424Z,94856.00
2023-05-08T05:16:24.497Z,94860.00
2023-05-08T05:17:24.470Z,94856.00
2023-05-08T05:18:24.436Z,94860.00
2023-05-08T05:19:24.414Z,94864.00
2023-05-08T05:20:24.438Z,94862.00
2023-05-08T05:21:24.427Z,94862.00
2023-05-08T05:22:24.451Z,94858.00
2023-05-08T05:23:24.430Z,94858.00
2023-05-08T05:24:24.414Z,94858.00
2023-05-08T05:25:24.412Z,94858.00
2023-05-08T05:26:24.427Z,94862.00
2023-05-08T05:27:24.422Z,94862.00
2023-05-08T05:28:24.406Z,94868.00
2023-05-08T05:29:24.395Z,94864.00
2023-05-08T05:30:24.405Z,94866.00
2023-05-08T05:31:24.445Z,94868.00
2023-05-08T05:32:24.450Z,94868.00
2023-05-08T05:33:24.408Z,94870.00
2023-05-08T05:34:24.398Z,94868.00
2023-05-08T05:35:25.741Z,94868.00
2023-05-08T05:36:25.226Z,94870.00
2023-05-08T05:37:24.438Z,94868.00
2023-05-08T05:38:24.457Z,94868.00
2023-05-08T05:39:24.469Z,94873.00
2023-05-08T05:40:24.510Z,94873.00
2023-05-08T05:41:24.544Z,94873.00
2023-05-08T05:42:24.575Z,94875.00
2023-05-08T05:43:24.585Z,94883.00
2023-05-08T05:44:24.632Z,94879.00
2023-05-08T05:45:24.673Z,94885.00
2023-05-08T05:46:24.720Z,94885.00
2023-05-08T05:47:24.872Z,94885.00
2023-05-08T05:48:24.881Z,94883.00
2023-05-08T05:49:24.901Z,94885.00
2023-05-08T05:50:24.957Z,94883.00
2023-05-08T05:51:24.986Z,94885.00
2023-05-08T05:52:25.030Z,94889.00
2023-05-08T05:53:25.068Z,94885.00
2023-05-08T05:54:25.110Z,94889.00
2023-05-08T05:55:25.162Z,94889.00
2023-05-08T05:56:25.230Z,94889.00
2023-05-08T05:57:25.293Z,94889.00
2023-05-08T05:58:25.339Z,94889.00
2023-05-08T05:59:25.374Z,94887.00
2023-05-08T06:00:25.419Z,94885.00
2023-05-08T06:01:25.498Z,94887.00
2023-05-08T06:02:25.636Z,94889.00
2023-05-08T06:03:25.687Z,94891.00
2023-05-08T06:04:25.673Z,94889.00
2023-05-08T06:05:25.637Z,94891.00
2023-05-08T06:06:25.654Z,94889.00
2023-05-08T06:07:25.675Z,94891.00
2023-05-08T06:08:25.695Z,94893.00
2023-05-08T06:09:25.722Z,94901.00
2023-05-08T06:10:25.753Z,94901.00
2023-05-08T06:11:25.793Z,94903.00
2023-05-08T06:12:25.825Z,94907.00
2023-05-08T06:13:25.986Z,94903.00
2023-05-08T06:14:25.869Z,94907.00
2023-05-08T06:15:25.892Z,94909.00
2023-05-08T06:16:25.954Z,94907.00
2023-05-08T06:17:25.991Z,94907.00
2023-05-08T06:18:25.986Z,94909.00
2023-05-08T06:19:25.983Z,94907.00
2023-05-08T06:20:26.581Z,94909.00
2023-05-08T06:21:26.002Z,94909.00
2023-05-08T06:22:26.004Z,94911.00
2023-05-08T06:23:25.984Z,94911.00
2023-05-08T06:24:25.979Z,94917.00
2023-05-08T06:25:25.994Z,94917.00
2023-05-08T06:26:25.957Z,94917.00
2023-05-08T06:27:25.946Z,94917.00
2023-05-08T06:28:25.993Z,94917.00
2023-05-08T06:29:25.976Z,94917.00
2023-05-08T06:30:26.043Z,94915.00
2023-05-08T06:31:26.056Z,94911.00
2023-05-08T06:32:26.068Z,94917.00
2023-05-08T06:33:26.935Z,94915.00
2023-05-08T06:34:26.077Z,94917.00
2023-05-08T06:35:26.312Z,94917.00
2023-05-08T06:36:26.143Z,94917.00
2023-05-08T06:37:26.198Z,94917.00
2023-05-08T06:38:26.165Z,94921.00
2023-05-08T06:39:26.208Z,94921.00
2023-05-08T06:40:26.221Z,94919.00
2023-05-08T06:41:26.250Z,94919.00
2023-05-08T06:42:26.300Z,94921.00
2023-05-08T06:43:26.366Z,94919.00
2023-05-08T06:44:26.435Z,94921.00
2023-05-08T06:45:26.482Z,94915.00
2023-05-08T06:46:26.631Z,94921.00
2023-05-08T06:47:26.625Z,94921.00
2023-05-08T06:48:26.684Z,94919.00
2023-05-08T06:49:26.708Z,94917.00
2023-05-08T06:50:26.807Z,94919.00
2023-05-08T06:51:26.811Z,94919.00
2023-05-08T06:52:26.874Z,94919.00
2023-05-08T06:53:26.919Z,94921.00
2023-05-08T06:54:27.000Z,94923.00
2023-05-08T06:55:27.263Z,94917.00
2023-05-08T06:56:27.078Z,94919.00
2023-05-08T06:57:27.167Z,94921.00
2023-05-08T06:58:27.184Z,94921.00
2023-05-08T06:59:27.232Z,94919.00
2023-05-08T07:00:27.273Z,94923.00
2023-05-08T07:01:27.357Z,94919.00
2023-05-08T07:02:27.432Z,94921.00
2023-05-08T07:03:27.424Z,94923.00
2023-05-08T07:04:27.531Z,94921.00
2023-05-08T07:05:27.511Z,94924.00
2023-05-08T07:06:27.524Z,94924.00
2023-05-08T07:07:27.570Z,94923.00
2023-05-08T07:08:27.592Z,94921.00
2023-05-08T07:09:27.629Z,94921.00
2023-05-08T07:10:27.671Z,94921.00
2023-05-08T07:11:27.679Z,94923.00
2023-05-08T07:12:27.721Z,94924.00
2023-05-08T07:13:27.875Z,94926.00
2023-05-08T07:14:27.770Z,94928.00
2023-05-08T07:15:27.950Z,94926.00
2023-05-08T07:16:27.867Z,94928.00
2023-05-08T07:17:27.940Z,94930.00
2023-05-08T07:18:27.898Z,94928.00
2023-05-08T07:19:27.931Z,94928.00
2023-05-08T07:20:27.960Z,94930.00
2023-05-08T07:21:27.986Z,94932.00
2023-05-08T07:22:28.057Z,94928.00
2023-05-08T07:23:28.002Z,94926.00
2023-05-08T07:24:28.044Z,94930.00
2023-05-08T07:25:28.366Z,94926.00
2023-05-08T07:26:28.072Z,94926.00
2023-05-08T07:27:28.127Z,94926.00
2023-05-08T07:28:28.123Z,94923.00
2023-05-08T07:29:28.154Z,94928.00
2023-05-08T07:30:28.217Z,94930.00
2023-05-08T07:31:28.284Z,94924.00
2023-05-08T07:32:28.345Z,94928.00
2023-05-08T07:33:28.340Z,94926.00
2023-05-08T07:34:28.354Z,94926.00
2023-05-08T07:35:28.373Z,94924.00
2023-05-08T07:36:28.384Z,94924.00
2023-05-08T07:37:28.385Z,94926.00
2023-05-08T07:38:28.416Z,94924.00
2023-05-08T07:39:28.383Z,94923.00
2023-05-08T07:40:28.779Z,94924.00
2023-05-08T07:41:28.409Z,94923.00
2023-05-08T07:42:28.367Z,94924.00
2023-05-08T07:43:28.777Z,94924.00
2023-05-08T07:44:28.362Z,94923.00
2023-05-08T07:45:28.375Z,94926.00
2023-05-08T07:46:28.407Z,94926.00
2023-05-08T07:47:28.420Z,94928.00
2023-05-08T07:48:28.463Z,94928.00
2023-05-08T07:49:28.461Z,94930.00
2023-05-08T07:50:28.513Z,94934.00
2023-05-08T07:51:28.539Z,94932.00
2023-05-08T07:52:28.572Z,94932.00
2023-05-08T07:53:28.561Z,94934.00
2023-05-08T07:54:28.580Z,94934.00
2023-05-08T07:55:28.595Z,94932.00
2023-05-08T07:56:28.620Z,94934.00
2023-05-08T07:57:28.617Z,94930.00
2023-05-08T07:58:28.661Z,94928.00
2023-05-08T07:59:28.659Z,94928.00
2023-05-08T08:00:28.677Z,94928.00
2023-05-08T08:01:28.658Z,94928.00
2023-05-08T08:02:28.728Z,94928.00
2023-05-08T08:03:28.816Z,94928.00
2023-05-08T08:04:28.784Z,94928.00
2023-05-08T08:05:28.791Z,94928.00
2023-05-08T08:06:28.741Z,94928.00
2023-05-08T08:07:28.783Z,94928.00
2023-05-08T08:08:29.292Z,94930.00
2023-05-08T08:09:28.859Z,94928.00
2023-05-08T08:10:28.917Z,94928.00
2023-05-08T08:11:28.894Z,94926.00
2023-05-08T08:12:28.954Z,94926.00
2023-05-08T08:13:29.440Z,94928.00
2023-05-08T08:14:28.946Z,94928.00
2023-05-08T08:15:29.017Z,94926.00
2023-05-08T08:16:29.016Z,94926.00
2023-05-08T08:17:29.307Z,94926.00
2023-05-08T08:18:29.337Z,94930.00
2023-05-08T08:19:29.083Z,94928.00
2023-05-08T08:20:29.136Z,94926.00
2023-05-08T08:21:29.205Z,94928.00
2023-05-08T08:22:29.246Z,94928.00
2023-05-08T08:23:29.306Z,94930.00
2023-05-08T08:24:29.366Z,94928.00
2023-05-08T08:25:29.795Z,94932.00
2023-05-08T08:26:29.383Z,94928.00
2023-05-08T08:27:29.428Z,94928.00
2023-05-08T08:28:29.406Z,94928.00
2023-05-08T08:29:29.484Z,94928.00
2023-05-08T08:30:29.397Z,94928.00
2023-05-08T08:31:29.473Z,94924.00
2023-05-08T08:32:29.444Z,94924.00
2023-05-08T08:33:29.452Z,94926.00
2023-05-08T08:34:29.475Z,94923.00
2023-05-08T08:35:29.530Z,94926.00
2023-05-08T08:36:29.565Z,94928.00
2023-05-08T08:37:29.598Z,94928.00
2023-05-08T08:38:29.582Z,94928.00
2023-05-08T08:39:29.583Z,94926.00
2023-05-08T08:40:29.582Z,94928.00
2023-05-08T08:41:29.584Z,94928.00
2023-05-08T08:42:29.617Z,94928.00
2023-05-08T08:43:29.819Z,94928.00
2023-05-08T08:44:29.712Z,94928.00
2023-05-08T08:45:29.814Z,94924.00
2023-05-08T08:46:29.798Z,94928.00
2023-05-08T08:47:29.959Z,94926.00
2023-05-08T08:48:29.869Z,94923.00
2023-05-08T08:49:29.956Z,94923.00
2023-05-08T08:50:30.011Z,94923.00
2023-05-08T08:51:30.067Z,94923.00
2023-05-08T08:52:30.131Z,94924.00
2023-05-08T08:53:30.190Z,94923.00
2023-05-08T08:54:30.207Z,94921.00
2023-05-08T08:55:30.269Z,94921.00
2023-05-08T08:56:30.325Z,94924.00
2023-05-08T08:57:30.354Z,94923.00
2023-05-08T08:58:30.425Z,94921.00
2023-05-08T08:59:30.478Z,94917.00
2023-05-08T09:00:30.535Z,94919.00
2023-05-08T09:01:30.695Z,94919.00
2023-05-08T09:02:30.682Z,94921.00
2023-05-08T09:03:30.779Z,94923.00
2023-05-08T09:04:30.601Z,94919.00
2023-05-08T09:05:30.806Z,94923.00
2023-05-08T09:06:30.651Z,94923.00
2023-05-08T09:07:30.697Z,94923.00
2023-05-08T09:08:30.728Z,94921.00
2023-05-08T09:09:30.755Z,94923.00
2023-05-08T09:10:30.771Z,94923.00
2023-05-08T09:11:30.852Z,94924.00
2023-05-08T09:12:30.905Z,94923.00
2023-05-08T09:13:31.169Z,94926.00
2023-05-08T09:14:31.018Z,94923.00
2023-05-08T09:15:31.068Z,94921.00
2023-05-08T09:16:31.186Z,94923.00
2023-05-08T09:17:31.278Z,94924.00
2023-05-08T09:18:31.193Z,94923.00
2023-05-08T09:19:31.259Z,94924.00
2023-05-08T09:20:31.286Z,94921.00
2023-05-08T09:21:31.347Z,94921.00
2023-05-08T09:22:31.377Z,94926.00
2023-05-08T09:23:31.832Z,94930.00
2023-05-08T09:24:31.438Z,94924.00
2023-05-08T09:25:31.494Z,94926.00
2023-05-08T09:26:31.525Z,94930.00
2023-05-08T09:27:31.558Z,94926.00
2023-05-08T09:28:31.810Z,94919.00
2023-05-08T09:29:31.631Z,94921.00
2023-05-08T09:30:31.644Z,94919.00
2023-05-08T09:31:32.703Z,94921.00
2023-05-08T09:32:31.737Z,94923.00
2023-05-08T09:33:31.923Z,94917.00
2023-05-08T09:34:31.753Z,94923.00
2023-05-08T09:35:31.768Z,94923.00
2023-05-08T09:36:31.848Z,94923.00
2023-05-08T09:37:31.828Z,94921.00
2023-05-08T09:38:31.839Z,94923.00
2023-05-08T09:39:31.865Z,94919.00
2023-05-08T09:40:31.853Z,94923.00
2023-05-08T09:41:31.889Z,94924.00
2023-05-08T09:42:31.881Z,94924.00
2023-05-08T09:43:31.918Z,94924.00
2023-05-08T09:44:31.907Z,94924.00
2023-05-08T09:45:32.226Z,94926.00
2023-05-08T09:46:31.975Z,94928.00
2023-05-08T09:47:32.038Z,94926.00
2023-05-08T09:48:31.945Z,94924.00
2023-05-08T09:49:32.036Z,94928.00
2023-05-08T09:50:31.979Z,94928.00
2023-05-08T09:51:31.970Z,94928.00
2023-05-08T09:52:31.986Z,94928.00
2023-05-08T09:53:32.000Z,94928.00
2023-05-08T09:54:32.005Z,94930.00
2023-05-08T09:55:31.996Z,94930.00
2023-05-08T09:56:32.021Z,94930.00
2023-05-08T09:57:31.996Z,94930.00
2023-05-08T09:58:32.007Z,94928.00
2023-05-08T09:59:34.108Z,94928.00
2023-05-08T10:00:32.021Z,94928.00
2023-05-08T10:01:32.085Z,94928.00
2023-05-08T10:02:32.042Z,94928.00
2023-05-08T10:03:32.398Z,94928.00
2023-05-08T10:04:32.053Z,94930.00
2023-05-08T10:05:32.493Z,94928.00
2023-05-08T10:06:32.361Z,94928.00
2023-05-08T10:07:32.091Z,94926.00
2023-05-08T10:08:32.096Z,94921.00
2023-05-08T10:09:46.861Z,94926.00
2023-05-08T10:10:33.124Z,94928.00
2023-05-08T10:11:32.126Z,94928.00
2023-05-08T10:12:32.124Z,94926.00
2023-05-08T10:13:32.137Z,94924.00
2023-05-08T10:14:32.140Z,94924.00
2023-05-08T10:15:32.075Z,94926.00
2023-05-08T10:16:32.173Z,94924.00
2023-05-08T10:17:32.163Z,94924.00
2023-05-08T10:18:32.076Z,94921.00
2023-05-08T10:19:32.053Z,94923.00
2023-05-08T10:20:32.053Z,94926.00
2023-05-08T10:21:32.423Z,94917.00
2023-05-08T10:22:32.037Z,94919.00
2023-05-08T10:23:32.025Z,94923.00
2023-05-08T10:24:32.039Z,94919.00
2023-05-08T10:25:32.007Z,94919.00
2023-05-08T10:26:32.037Z,94919.00
2023-05-08T10:27:32.031Z,94917.00
2023-05-08T10:28:32.337Z,94917.00
2023-05-08T10:29:32.046Z,94913.00
2023-05-08T10:30:32.057Z,94917.00
2023-05-08T10:31:32.133Z,94907.00
2023-05-08T10:32:32.149Z,94915.00
2023-05-08T10:33:32.481Z,94917.00
2023-05-08T10:34:32.137Z,94913.00
2023-05-08T10:35:32.163Z,94909.00
2023-05-08T10:36:32.168Z,94913.00
2023-05-08T10:37:32.254Z,94909.00
2023-05-08T10:38:32.207Z,94909.00
2023-05-08T10:39:32.184Z,94907.00
2023-05-08T10:40:32.197Z,94907.00
2023-05-08T10:41:32.227Z,94905.00
2023-05-08T10:42:32.262Z,94903.00
2023-05-08T10:43:32.263Z,94901.00
2023-05-08T10:44:32.312Z,94901.00
2023-05-08T10:45:32.337Z,94901.00
2023-05-08T10:46:32.399Z,94893.00
2023-05-08T10:47:32.427Z,94893.00
2023-05-08T10:48:32.441Z,94891.00
2023-05-08T10:49:32.501Z,94893.00
2023-05-08T10:50:32.557Z,94887.00
2023-05-08T10:51:32.612Z,94889.00
2023-05-08T10:52:32.666Z,94885.00
2023-05-08T10:53:32.727Z,94881.00
2023-05-08T10:54:32.777Z,94881.00
2023-05-08T10:55:32.823Z,94877.00
2023-05-08T10:56:32.904Z,94877.00
2023-05-08T10:57:32.955Z,94875.00
2023-05-08T10:58:33.021Z,94875.00
2023-05-08T10:59:33.050Z,94875.00
2023-05-08T11:00:33.083Z,94877.00
2023-05-08T11:01:33.142Z,94875.00
2023-05-08T11:02:33.282Z,94873.00
2023-05-08T11:03:33.514Z,94873.00
2023-05-08T11:04:33.426Z,94871.00
2023-05-08T11:05:33.276Z,94868.00
2023-05-08T11:06:33.305Z,94864.00
2023-05-08T11:07:33.367Z,94868.00
2023-05-08T11:08:33.451Z,94864.00
2023-05-08T11:09:33.517Z,94862.00
2023-05-08T11:10:33.597Z,94860.00
2023-05-08T11:11:33.620Z,94856.00
2023-05-08T11:12:33.646Z,94854.00
2023-05-08T11:13:33.703Z,94854.00
2023-05-08T11:14:33.773Z,94850.00
2023-05-08T11:15:33.808Z,94846.00
2023-05-08T11:16:34.432Z,94846.00
2023-05-08T11:17:33.969Z,94844.00
2023-05-08T11:19:34.010Z,94846.00
2023-05-08T11:20:33.965Z,94840.00
2023-05-08T11:21:34.374Z,94840.00
2023-05-08T11:22:33.949Z,94836.00
2023-05-08T11:23:33.941Z,94836.00
2023-05-08T11:24:33.925Z,94834.00
2023-05-08T11:25:33.913Z,94834.00
2023-05-08T11:26:33.917Z,94834.00
2023-05-08T11:27:33.903Z,94830.00
2023-05-08T11:28:34.609Z,94828.00
2023-05-08T11:29:33.905Z,94823.00
2023-05-08T11:30:33.902Z,94826.00
2023-05-08T11:31:33.887Z,94819.00
2023-05-08T11:32:33.867Z,94821.00
2023-05-08T11:33:33.872Z,94821.00
2023-05-08T11:34:33.863Z,94817.00
2023-05-08T11:35:33.845Z,94823.00
2023-05-08T11:36:33.917Z,94817.00
2023-05-08T11:37:33.981Z,94815.00
2023-05-08T11:38:34.069Z,94817.00
2023-05-08T11:39:34.120Z,94819.00
2023-05-08T11:40:34.170Z,94813.00
2023-05-08T11:41:34.206Z,94815.00
2023-05-08T11:42:34.297Z,94815.00
2023-05-08T11:43:34.365Z,94811.00
2023-05-08T11:44:34.377Z,94815.00
2023-05-08T11:45:34.429Z,94819.00
2023-05-08T11:46:34.568Z,94813.00